Time;durP1;ratioP1;P1;durP2;ratioP2;P2;SDS_P1;SDS_P2;PMS_P1;PMS_P2;Temp;Humidity;BMP_temperature;BMP_pressure;BME280_temperature;BME280_humidity;BME280_pressure;Samples;Min_cycle;Max_cycle;Signal;HPM_P1;HPM_P2
2022/10/30 00:01:23;;;;;;;28.20;16.17;;;11.30;99.90;;;;;;4425970;28;660572;-70
2022/10/30 00:04:11;;;;;;;26.00;15.90;;;11.30;99.90;;;;;;4415202;28;659226;-70
2022/10/30 00:06:59;;;;;;;27.17;16.90;;;11.30;99.90;;;;;;4426486;28;658752;-70
2022/10/30 00:09:46;;;;;;;27.20;17.47;;;11.30;99.90;;;;;;4408046;28;658542;-70
2022/10/30 00:12:33;;;;;;;29.37;17.13;;;11.30;99.90;;;;;;4429946;28;659272;-70
2022/10/30 00:15:20;;;;;;;27.37;15.50;;;11.30;99.90;;;;;;4408303;28;658495;-70
2022/10/30 00:18:07;;;;;;;28.93;15.67;;;11.30;99.90;;;;;;4431049;28;659042;-70
2022/10/30 00:20:56;;;;;;;27.50;16.93;;;11.30;99.90;;;;;;4422337;28;658835;-70
2022/10/30 00:23:45;;;;;;;30.03;16.77;;;11.30;99.90;;;;;;4398315;28;659116;-70
2022/10/30 00:26:32;;;;;;;28.48;16.60;;;11.30;99.90;;;;;;4403332;28;659699;-70
2022/10/30 00:29:22;;;;;;;31.20;16.17;;;11.30;99.90;;;;;;4430884;28;657932;-70
2022/10/30 00:32:09;;;;;;;29.77;15.90;;;11.30;99.90;;;;;;4401493;28;658443;-70
2022/10/30 00:34:56;;;;;;;27.65;15.65;;;11.30;99.90;;;;;;4392900;28;658629;-70
2022/10/30 00:37:45;;;;;;;27.13;14.93;;;11.30;99.90;;;;;;4422395;28;659387;-70
2022/10/30 00:40:32;;;;;;;28.13;16.57;;;11.20;99.90;;;;;;4403792;28;659050;-70
2022/10/30 00:43:28;;;;;;;27.87;16.13;;;11.30;99.90;;;;;;4425247;28;658434;-70
2022/10/30 00:46:18;;;;;;;27.05;16.00;;;11.30;99.90;;;;;;4408078;28;658429;-70
2022/10/30 00:49:09;;;;;;;26.60;16.23;;;11.30;99.90;;;;;;4412189;28;658793;-70
2022/10/30 00:51:56;;;;;;;36.73;14.57;;;11.40;99.90;;;;;;4402886;28;658853;-70
2022/10/30 00:54:45;;;;;;;34.27;15.97;;;11.20;99.90;;;;;;4425884;28;660024;-70
2022/10/30 00:57:32;;;;;;;24.97;14.70;;;11.20;99.90;;;;;;4407664;28;660207;-70
2022/10/30 01:00:20;;;;;;;35.83;17.40;;;11.20;99.90;;;;;;4426570;28;658839;-70
2022/10/30 01:03:07;;;;;;;30.13;17.00;;;11.30;99.90;;;;;;4403020;28;659134;-70
2022/10/30 01:05:55;;;;;;;27.00;16.60;;;11.50;99.90;;;;;;4418425;28;658284;-70
2022/10/30 01:08:43;;;;;;;34.17;16.77;;;11.40;99.90;;;;;;4407617;28;658881;-70
2022/10/30 01:11:32;;;;;;;32.93;17.03;;;11.50;99.90;;;;;;4421920;28;658399;-70
2022/10/30 01:14:19;;;;;;;30.80;16.97;;;11.50;99.90;;;;;;4429558;28;658385;-70
2022/10/30 01:17:24;;;;;;;32.57;16.80;;;11.50;99.90;;;;;;4397718;28;658752;-70
2022/10/30 01:20:20;;;;;;;28.30;17.53;;;11.50;99.90;;;;;;4383990;28;659099;-70
2022/10/30 01:23:16;;;;;;;28.47;16.63;;;11.40;99.90;;;;;;4381759;28;659360;-70
2022/10/30 01:26:07;;;;;;;26.80;16.90;;;11.30;99.90;;;;;;4406681;28;659859;-70
2022/10/30 01:29:03;;;;;;;29.27;16.40;;;11.20;99.90;;;;;;4397542;28;659236;-70
2022/10/30 01:31:56;;;;;;;29.87;18.67;;;11.20;99.90;;;;;;4377127;28;659488;-71
2022/10/30 01:34:46;;;;;;;36.70;19.33;;;11.20;99.90;;;;;;4403640;28;658959;-70
2022/10/30 01:37:34;;;;;;;41.60;22.17;;;11.10;99.90;;;;;;4406118;28;659174;-70
2022/10/30 01:40:22;;;;;;;35.10;22.67;;;11.20;99.90;;;;;;4407035;28;658698;-70
2022/10/30 01:43:09;;;;;;;37.10;21.57;;;11.20;99.90;;;;;;4429532;28;658183;-70
2022/10/30 01:46:09;;;;;;;39.23;22.67;;;11.00;99.90;;;;;;4410902;28;658897;-71
2022/10/30 01:49:04;;;;;;;41.33;22.00;;;11.00;99.90;;;;;;4378024;28;659136;-71
2022/10/30 01:51:55;;;;;;;43.47;23.97;;;11.00;99.90;;;;;;4382100;28;659387;-71
2022/10/30 01:54:46;;;;;;;54.80;28.00;;;11.00;99.90;;;;;;4403422;28;659614;-70
2022/10/30 01:57:36;;;;;;;46.07;27.73;;;11.00;99.90;;;;;;4395119;28;659217;-71
2022/10/30 02:00:23;;;;;;;50.07;28.03;;;10.90;99.90;;;;;;4404484;28;659177;-71
2022/10/30 02:03:12;;;;;;;46.83;26.10;;;11.00;99.90;;;;;;4409422;28;659274;-71
2022/10/30 02:05:59;;;;;;;44.27;26.70;;;10.80;99.90;;;;;;4420491;28;659031;-69
2022/10/30 02:08:46;;;;;;;51.10;31.30;;;10.90;99.90;;;;;;4406068;28;660158;-70
2022/10/30 02:11:34;;;;;;;55.17;32.00;;;11.00;99.90;;;;;;4428578;28;658639;-71
2022/10/30 02:14:23;;;;;;;62.37;33.93;;;11.00;99.90;;;;;;4408320;28;658561;-70
2022/10/30 02:17:11;;;;;;;54.47;32.17;;;11.00;99.90;;;;;;4400537;28;658838;-70
2022/10/30 02:20:00;;;;;;;47.73;27.43;;;11.00;99.90;;;;;;4428773;28;659641;-71
2022/10/30 02:22:48;;;;;;;47.63;27.47;;;11.00;99.90;;;;;;4405028;28;659546;-70
2022/10/30 02:25:35;;;;;;;48.00;26.33;;;10.90;99.90;;;;;;4400080;28;658265;-70
2022/10/30 02:28:23;;;;;;;55.67;27.77;;;10.80;99.90;;;;;;4427920;28;659897;-71
2022/10/30 02:31:10;;;;;;;52.77;27.17;;;10.80;99.90;;;;;;4420922;28;659210;-70
2022/10/30 02:33:57;;;;;;;46.77;26.43;;;10.80;99.90;;;;;;4412806;28;660430;-71
2022/10/30 02:36:44;;;;;;;47.23;26.37;;;10.70;99.90;;;;;;4427414;28;658639;-70
2022/10/30 02:39:33;;;;;;;50.10;28.13;;;10.70;99.90;;;;;;4409031;28;658490;-70
2022/10/30 02:42:22;;;;;;;53.50;28.00;;;10.60;99.90;;;;;;4408957;28;658443;-70
2022/10/30 02:45:10;;;;;;;52.47;28.57;;;10.60;99.90;;;;;;4424864;28;658472;-71
2022/10/30 02:47:58;;;;;;;52.23;28.00;;;10.50;99.90;;;;;;4405481;28;659574;-70
2022/10/30 02:50:45;;;;;;;46.97;27.50;;;10.60;99.90;;;;;;4406567;28;658422;-70
2022/10/30 02:53:33;;;;;;;56.40;30.67;;;10.60;99.90;;;;;;4427397;28;659905;-70
2022/10/30 02:56:22;;;;;;;62.27;34.03;;;10.60;99.90;;;;;;4406887;28;658906;-70
2022/10/30 02:59:09;;;;;;;66.73;37.07;;;10.50;99.90;;;;;;4425746;28;658356;-70
2022/10/30 03:01:56;;;;;;;68.23;37.23;;;10.50;99.90;;;;;;4408588;28;659480;-70
2022/10/30 03:04:43;;;;;;;72.60;37.73;;;10.40;99.90;;;;;;4421054;28;658996;-70
2022/10/30 03:07:30;;;;;;;68.03;36.70;;;10.40;99.90;;;;;;4403151;28;658529;-71
2022/10/30 03:10:18;;;;;;;82.60;38.30;;;10.30;99.90;;;;;;4427668;28;660026;-71
2022/10/30 03:13:06;;;;;;;69.00;35.43;;;10.30;99.90;;;;;;4416595;28;658653;-71
2022/10/30 03:15:59;;;;;;;62.97;33.73;;;10.30;99.90;;;;;;4426666;28;659152;-71
2022/10/30 03:18:46;;;;;;;57.77;31.90;;;10.40;99.90;;;;;;4378134;28;659477;-70
2022/10/30 03:21:33;;;;;;;66.97;33.17;;;10.40;99.90;;;;;;4423057;28;659955;-71
2022/10/30 03:24:20;;;;;;;61.43;32.90;;;10.30;99.90;;;;;;4406842;28;658505;-71
2022/10/30 03:27:07;;;;;;;67.67;33.23;;;10.20;99.90;;;;;;4431216;28;658773;-71
2022/10/30 03:29:56;;;;;;;66.43;32.20;;;10.20;99.90;;;;;;4423141;28;659361;-71
2022/10/30 03:32:43;;;;;;;56.93;31.23;;;10.20;99.90;;;;;;4401860;28;658956;-71
2022/10/30 03:35:30;;;;;;;57.47;32.27;;;10.30;99.90;;;;;;4393503;28;658669;-70
2022/10/30 03:38:17;;;;;;;61.73;32.87;;;10.30;99.90;;;;;;4422884;28;659193;-71
2022/10/30 03:41:05;;;;;;;57.30;31.23;;;10.20;99.90;;;;;;4427314;28;658691;-71
2022/10/30 03:43:52;;;;;;;57.10;30.87;;;10.30;99.90;;;;;;4404606;28;659630;-71
2022/10/30 03:46:40;;;;;;;62.57;32.00;;;10.30;99.90;;;;;;4427513;28;658592;-71
2022/10/30 03:49:27;;;;;;;66.57;34.47;;;10.30;99.90;;;;;;4404066;28;658685;-71
2022/10/30 03:52:15;;;;;;;64.23;31.10;;;10.40;99.90;;;;;;4421155;28;658708;-70
2022/10/30 03:55:02;;;;;;;83.43;39.13;;;10.40;99.90;;;;;;4432521;28;659630;-70
2022/10/30 03:57:49;;;;;;;106.47;47.23;;;10.40;99.90;;;;;;4427890;28;658758;-71
2022/10/30 04:00:37;;;;;;;116.70;54.43;;;10.40;99.90;;;;;;4407085;28;661634;-71
2022/10/30 04:03:25;;;;;;;124.10;55.43;;;10.30;99.90;;;;;;4426130;28;659837;-71
2022/10/30 04:06:12;;;;;;;133.60;58.47;;;10.30;99.90;;;;;;4403301;28;660966;-71
2022/10/30 04:08:59;;;;;;;136.53;54.17;;;10.30;99.90;;;;;;4422189;28;659751;-71
2022/10/30 04:11:47;;;;;;;120.47;51.50;;;10.30;99.90;;;;;;4406473;28;659399;-71
2022/10/30 04:14:34;;;;;;;158.60;57.03;;;10.40;99.90;;;;;;4425655;28;659697;-71
2022/10/30 04:17:21;;;;;;;156.43;56.13;;;10.30;99.90;;;;;;4402594;28;659494;-71
2022/10/30 04:20:10;;;;;;;176.77;53.30;;;10.30;99.90;;;;;;4424816;28;660524;-71
2022/10/30 04:22:58;;;;;;;178.30;52.57;;;10.30;99.90;;;;;;4401311;28;660441;-71
2022/10/30 04:25:45;;;;;;;186.27;52.73;;;10.20;99.90;;;;;;4401072;28;659717;-71
2022/10/30 04:28:32;;;;;;;165.13;52.10;;;10.20;99.90;;;;;;4428473;28;660916;-71
2022/10/30 04:31:19;;;;;;;181.33;47.87;;;10.20;99.90;;;;;;4429399;28;659130;-71
2022/10/30 04:34:07;;;;;;;213.20;52.50;;;10.20;99.90;;;;;;4393189;28;660291;-71
2022/10/30 04:36:55;;;;;;;255.33;50.17;;;10.20;99.90;;;;;;4414562;28;659919;-71
2022/10/30 04:39:44;;;;;;;231.43;48.50;;;10.10;99.90;;;;;;4402551;28;661080;-71
2022/10/30 04:42:31;;;;;;;463.73;58.40;;;10.10;99.90;;;;;;4406221;28;659591;-71
2022/10/30 04:45:18;;;;;;;297.83;49.23;;;10.00;99.90;;;;;;4425245;28;660262;-71
2022/10/30 04:48:07;;;;;;;362.90;50.40;;;10.00;99.90;;;;;;4409948;28;660075;-71
2022/10/30 04:50:54;;;;;;;604.33;58.57;;;10.00;99.90;;;;;;4425497;28;659449;-71
2022/10/30 04:53:42;;;;;;;280.50;43.47;;;9.90;99.90;;;;;;4405710;28;660688;-70
2022/10/30 04:56:31;;;;;;;205.33;34.63;;;9.90;99.90;;;;;;4421550;28;658366;-71
2022/10/30 04:59:18;;;;;;;235.87;35.57;;;9.90;99.90;;;;;;4406284;28;658990;-71
2022/10/30 05:02:06;;;;;;;227.43;33.27;;;9.90;99.90;;;;;;4410077;28;658634;-71
2022/10/30 05:04:53;;;;;;;197.73;30.20;;;9.80;99.90;;;;;;4430491;28;659449;-71
2022/10/30 05:07:40;;;;;;;294.70;31.53;;;9.80;99.90;;;;;;4412534;28;658540;-71
2022/10/30 05:10:29;;;;;;;345.90;33.50;;;9.80;99.90;;;;;;4433151;28;659887;-71
2022/10/30 05:13:16;;;;;;;204.47;30.77;;;9.80;99.90;;;;;;4409065;28;659218;-71
2022/10/30 05:16:03;;;;;;;214.10;32.70;;;9.80;99.90;;;;;;4432879;28;659630;-71
2022/10/30 05:18:50;;;;;;;200.57;31.97;;;9.80;99.90;;;;;;4405494;28;659092;-70
2022/10/30 05:21:37;;;;;;;164.07;29.33;;;9.80;99.90;;;;;;4429648;28;659778;-71
2022/10/30 05:24:25;;;;;;;215.30;32.70;;;9.80;99.90;;;;;;4428289;28;659060;-70
2022/10/30 05:27:14;;;;;;;250.07;34.27;;;9.80;99.90;;;;;;4430950;28;658664;-71
2022/10/30 05:30:01;;;;;;;299.33;32.73;;;9.90;99.90;;;;;;4410036;28;659059;-71
2022/10/30 05:32:48;;;;;;;207.37;30.60;;;9.90;99.90;;;;;;4432979;28;659843;-71
2022/10/30 05:35:35;;;;;;;268.53;32.50;;;9.90;99.90;;;;;;4403680;28;658388;-71
2022/10/30 05:38:22;;;;;;;208.17;28.03;;;9.90;99.90;;;;;;4432798;28;660232;-70
2022/10/30 05:41:09;;;;;;;404.90;32.90;;;9.90;99.90;;;;;;4429291;28;658591;-71
2022/10/30 05:43:58;;;;;;;317.60;36.03;;;9.90;99.90;;;;;;4410042;28;659582;-70
2022/10/30 05:46:45;;;;;;;465.07;36.37;;;9.90;99.90;;;;;;4404659;28;658546;-71
2022/10/30 05:49:32;;;;;;;392.17;35.27;;;9.90;99.90;;;;;;4429397;28;659307;-71
2022/10/30 05:52:20;;;;;;;368.83;37.30;;;9.90;99.90;;;;;;4426655;28;659257;-70
2022/10/30 05:55:08;;;;;;;399.40;41.10;;;10.00;99.90;;;;;;4433321;28;659628;-71
2022/10/30 05:57:56;;;;;;;496.97;42.63;;;10.00;99.90;;;;;;4408900;28;659919;-71
2022/10/30 06:00:45;;;;;;;279.93;35.90;;;10.00;99.90;;;;;;4428363;28;659450;-72
2022/10/30 06:03:32;;;;;;;222.70;33.83;;;10.00;99.90;;;;;;4405721;28;659592;-71
2022/10/30 06:06:19;;;;;;;165.80;33.10;;;10.00;99.90;;;;;;4428820;28;659557;-71
2022/10/30 06:09:06;;;;;;;192.57;32.73;;;10.10;99.90;;;;;;4396475;28;659776;-71
2022/10/30 06:11:54;;;;;;;234.83;34.63;;;10.10;99.90;;;;;;4427567;28;659525;-71
2022/10/30 06:14:41;;;;;;;162.77;31.92;;;10.10;99.90;;;;;;4409027;28;659598;-71
2022/10/30 06:17:31;;;;;;;193.03;30.87;;;10.10;99.90;;;;;;4427625;28;659807;-72
2022/10/30 06:20:22;;;;;;;243.43;32.43;;;10.10;99.90;;;;;;4401835;28;660282;-71
2022/10/30 06:23:10;;;;;;;304.00;33.13;;;10.20;99.90;;;;;;4403842;28;659485;-71
2022/10/30 06:25:57;;;;;;;134.43;31.07;;;10.20;99.90;;;;;;4404154;28;660865;-70
2022/10/30 06:28:44;;;;;;;98.40;30.48;;;10.40;99.90;;;;;;4413482;28;659990;-71
2022/10/30 06:31:31;;;;;;;113.47;30.30;;;10.40;99.90;;;;;;4408775;28;659116;-71
2022/10/30 06:34:19;;;;;;;74.33;27.43;;;10.30;99.90;;;;;;4413093;28;660700;-71
2022/10/30 06:37:07;;;;;;;80.90;28.57;;;10.50;99.90;;;;;;4401808;28;659962;-70
2022/10/30 06:39:54;;;;;;;89.33;30.77;;;10.50;99.90;;;;;;4426025;28;658460;-71
2022/10/30 06:42:44;;;;;;;90.53;31.83;;;10.60;99.90;;;;;;4409020;28;658893;-71
2022/10/30 06:45:31;;;;;;;83.47;31.63;;;10.50;99.90;;;;;;4397793;28;658872;-71
2022/10/30 06:48:18;;;;;;;87.67;31.80;;;10.60;99.90;;;;;;4425994;28;659155;-71
2022/10/30 06:51:07;;;;;;;83.90;31.77;;;10.70;99.90;;;;;;4408154;28;658950;-71
2022/10/30 06:53:54;;;;;;;78.20;30.90;;;10.80;99.90;;;;;;4424347;28;658657;-71
2022/10/30 06:56:41;;;;;;;80.13;30.83;;;10.90;99.90;;;;;;4408392;28;659187;-71
2022/10/30 06:59:29;;;;;;;77.73;31.60;;;11.00;99.90;;;;;;4427759;28;659471;-71
2022/10/30 07:02:16;;;;;;;82.07;31.57;;;11.00;99.90;;;;;;4408864;28;659529;-71
2022/10/30 07:05:03;;;;;;;83.10;31.43;;;11.00;99.90;;;;;;4427366;28;658860;-71
2022/10/30 07:07:52;;;;;;;72.90;29.87;;;11.10;99.90;;;;;;4407979;28;659048;-71
2022/10/30 07:10:39;;;;;;;72.37;30.83;;;11.20;99.90;;;;;;4417725;28;658675;-71
2022/10/30 07:13:26;;;;;;;79.87;31.57;;;11.40;99.90;;;;;;4409334;28;658669;-71
2022/10/30 07:16:13;;;;;;;75.67;32.00;;;11.30;99.90;;;;;;4427608;28;659306;-71
2022/10/30 07:19:00;;;;;;;73.73;28.37;;;11.50;99.90;;;;;;4408968;28;658507;-71
2022/10/30 07:21:48;;;;;;;82.30;31.17;;;11.50;99.90;;;;;;4427425;28;659264;-70
2022/10/30 07:24:37;;;;;;;70.23;29.70;;;11.60;99.90;;;;;;4417095;28;658696;-71
2022/10/30 07:27:24;;;;;;;73.80;29.43;;;11.90;99.90;;;;;;4419105;28;659013;-71
2022/10/30 07:30:12;;;;;;;68.93;27.93;;;12.10;99.90;;;;;;4403128;28;658548;-70
2022/10/30 07:33:00;;;;;;;64.33;27.80;;;12.20;99.90;;;;;;4426647;28;659013;-71
2022/10/30 07:35:47;;;;;;;63.13;28.47;;;12.20;99.90;;;;;;4387865;28;659280;-71
2022/10/30 07:38:34;;;;;;;63.53;28.07;;;12.20;99.90;;;;;;4415859;28;658787;-71
2022/10/30 07:41:22;;;;;;;64.53;26.43;;;12.40;99.90;;;;;;4407343;28;658914;-71
2022/10/30 07:44:10;;;;;;;51.53;24.30;;;12.60;99.90;;;;;;4423770;28;658860;-71
2022/10/30 07:46:57;;;;;;;48.60;23.27;;;12.90;99.90;;;;;;4427491;28;659469;-71
2022/10/30 07:49:44;;;;;;;44.97;23.60;;;12.90;99.90;;;;;;4426581;28;658290;-71
2022/10/30 07:52:32;;;;;;;49.27;22.47;;;13.00;99.90;;;;;;4404868;28;658434;-71
2022/10/30 07:55:19;;;;;;;52.07;22.97;;;13.30;99.90;;;;;;4426922;28;658610;-71
2022/10/30 07:58:07;;;;;;;46.63;22.43;;;13.10;99.90;;;;;;4399608;28;659074;-70
2022/10/30 08:00:55;;;;;;;41.27;21.40;;;13.10;99.90;;;;;;4421810;28;659496;-71
2022/10/30 08:03:42;;;;;;;43.80;21.23;;;13.40;99.90;;;;;;4430971;28;659096;-71
2022/10/30 08:06:29;;;;;;;38.17;19.23;;;13.70;99.90;;;;;;4426536;28;659496;-70
2022/10/30 08:09:16;;;;;;;41.47;20.70;;;14.00;99.90;;;;;;4407996;28;659298;-71
2022/10/30 08:12:04;;;;;;;39.47;20.27;;;14.20;99.90;;;;;;4426766;28;658702;-71
2022/10/30 08:14:53;;;;;;;40.57;20.73;;;14.00;99.90;;;;;;4407203;28;658773;-70
2022/10/30 08:17:43;;;;;;;44.53;20.80;;;14.00;99.90;;;;;;4403731;28;658715;-71
2022/10/30 08:20:30;;;;;;;37.10;19.07;;;14.10;99.90;;;;;;4407945;28;658824;-70
2022/10/30 08:23:20;;;;;;;41.80;19.30;;;14.50;99.90;;;;;;4430257;28;659836;-71
2022/10/30 08:26:07;;;;;;;43.40;20.23;;;14.60;99.90;;;;;;4411121;28;659319;-70
2022/10/30 08:28:54;;;;;;;38.30;19.13;;;14.60;99.90;;;;;;4421551;28;658578;-71
2022/10/30 08:31:43;;;;;;;40.60;19.63;;;14.70;99.90;;;;;;4411313;28;658564;-70
2022/10/30 08:34:33;;;;;;;38.20;18.27;;;15.00;99.90;;;;;;4411434;28;658596;-70
2022/10/30 08:37:20;;;;;;;39.90;19.53;;;15.30;99.90;;;;;;4416209;28;658513;-71
2022/10/30 08:40:10;;;;;;;29.37;15.70;;;15.20;99.90;;;;;;4424086;28;659481;-70
2022/10/30 08:42:58;;;;;;;35.10;16.10;;;15.40;99.90;;;;;;4405475;28;659182;-70
2022/10/30 08:45:45;;;;;;;35.63;17.93;;;15.50;99.90;;;;;;4418664;28;658481;-71
2022/10/30 08:48:34;;;;;;;31.80;17.90;;;15.80;99.90;;;;;;4422652;28;659740;-71
2022/10/30 08:51:21;;;;;;;31.33;17.50;;;16.10;99.90;;;;;;4408549;28;658274;-70
2022/10/30 08:54:09;;;;;;;36.77;17.70;;;16.40;99.90;;;;;;4429471;28;659912;-71
2022/10/30 08:56:56;;;;;;;36.87;16.77;;;16.70;99.90;;;;;;4407954;28;658920;-71
2022/10/30 08:59:43;;;;;;;35.37;16.23;;;16.90;99.90;;;;;;4425515;28;659702;-71
2022/10/30 09:02:30;;;;;;;31.03;14.40;;;16.70;99.90;;;;;;4399359;28;658673;-70
2022/10/30 09:05:19;;;;;;;32.47;15.03;;;17.30;99.90;;;;;;4432436;28;658918;-71
2022/10/30 09:08:06;;;;;;;29.63;12.70;;;17.00;99.90;;;;;;4408444;28;658826;-70
2022/10/30 09:10:54;;;;;;;32.77;11.13;;;17.30;99.90;;;;;;4421389;28;659961;-70
2022/10/30 09:13:42;;;;;;;25.87;14.33;;;17.60;99.90;;;;;;4404823;28;659830;-70
2022/10/30 09:16:29;;;;;;;22.30;11.67;;;17.50;99.90;;;;;;4428556;28;658180;-70
2022/10/30 09:19:16;;;;;;;31.20;15.37;;;17.50;99.90;;;;;;4409527;28;658911;-71
2022/10/30 09:22:05;;;;;;;27.30;13.47;;;17.30;99.90;;;;;;4420537;28;660207;-71
2022/10/30 09:24:52;;;;;;;26.87;11.83;;;17.20;99.90;;;;;;4406089;28;660919;-71
2022/10/30 09:27:39;;;;;;;23.20;11.03;;;17.80;99.90;;;;;;4424031;28;658210;-71
2022/10/30 09:30:26;;;;;;;26.40;11.90;;;17.90;99.90;;;;;;4410657;28;659078;-71
2022/10/30 09:33:13;;;;;;;26.67;10.97;;;17.70;99.90;;;;;;4428910;28;659353;-70
2022/10/30 09:36:02;;;;;;;24.43;11.80;;;17.90;99.90;;;;;;4407151;28;658282;-70
2022/10/30 09:38:50;;;;;;;28.40;11.47;;;18.00;99.90;;;;;;4429542;28;660623;-71
2022/10/30 09:42:09;;;;;;;20.63;9.93;;;18.10;99.90;;;;;;4400088;28;659922;-71
2022/10/30 09:45:03;;;;;;;20.70;9.40;;;18.30;99.90;;;;;;4400116;28;658075;-70
2022/10/30 09:47:53;;;;;;;19.90;9.87;;;17.80;99.90;;;;;;4395377;28;657809;-71
2022/10/30 09:50:42;;;;;;;24.10;9.37;;;18.10;99.90;;;;;;4410489;28;657762;-71
2022/10/30 09:53:33;;;;;;;11.67;5.83;;;18.70;99.90;;;;;;4424056;28;657527;-70
2022/10/30 09:56:24;;;;;;;16.70;8.97;;;19.00;99.90;;;;;;4387878;28;658118;-71
2022/10/30 09:59:18;;;;;;;15.70;8.00;;;18.60;99.90;;;;;;4411185;28;657855;-71
2022/10/30 10:02:16;;;;;;;19.33;8.18;;;18.70;99.90;;;;;;4385270;28;658009;-70
2022/10/30 10:05:06;;;;;;;19.20;9.10;;;19.50;99.90;;;;;;4407344;28;658389;-70
2022/10/30 10:07:55;;;;;;;16.70;8.10;;;19.50;99.90;;;;;;4407283;28;657728;-71
2022/10/30 10:10:44;;;;;;;16.27;7.40;;;19.90;99.90;;;;;;4401971;28;659237;-71
2022/10/30 10:13:36;;;;;;;13.33;7.10;;;20.40;99.90;;;;;;4409525;28;658026;-71
2022/10/30 10:16:25;;;;;;;17.10;7.53;;;21.40;99.90;;;;;;4407474;28;658033;-71
2022/10/30 10:19:16;;;;;;;15.13;7.03;;;21.30;99.90;;;;;;4406810;28;658436;-71
2022/10/30 10:22:06;;;;;;;24.40;6.37;;;20.50;99.90;;;;;;4402506;28;658791;-71
2022/10/30 10:24:53;;;;;;;20.80;7.27;;;20.80;99.70;;;;;;4406036;28;658201;-70
2022/10/30 10:27:51;;;;;;;20.17;7.67;;;20.30;99.90;;;;;;4412264;28;657987;-70
2022/10/30 10:30:44;;;;;;;16.10;6.80;;;20.50;99.90;;;;;;4400220;28;657807;-70
2022/10/30 10:33:52;;;;;;;15.70;6.70;;;20.60;99.90;;;;;;4386816;28;658579;-71
2022/10/30 10:36:41;;;;;;;11.67;6.40;;;21.40;99.90;;;;;;4401176;28;657594;-70
2022/10/30 10:39:40;;;;;;;14.33;6.73;;;21.40;99.90;;;;;;4405426;28;658266;-71
2022/10/30 10:42:33;;;;;;;17.80;6.63;;;20.90;98.50;;;;;;4383130;28;657800;-71
2022/10/30 10:45:25;;;;;;;15.00;6.30;;;20.60;99.50;;;;;;4409526;28;657456;-70
2022/10/30 10:48:45;;;;;;;19.40;6.77;;;20.50;99.90;;;;;;4399576;28;657986;-71
2022/10/30 10:51:33;;;;;;;17.83;6.37;;;20.50;99.70;;;;;;4410565;28;657657;-70
2022/10/30 10:54:23;;;;;;;13.47;6.20;;;21.00;98.80;;;;;;4410216;28;657610;-71
2022/10/30 10:57:15;;;;;;;15.70;6.10;;;21.30;99.90;;;;;;4419342;28;657717;-71
2022/10/30 11:00:03;;;;;;;13.67;6.20;;;20.90;99.90;;;;;;4405391;28;658480;-71
2022/10/30 11:02:54;;;;;;;13.90;6.10;;;21.30;98.70;;;;;;4405362;28;657706;-71
2022/10/30 11:05:46;;;;;;;14.70;6.27;;;21.20;97.40;;;;;;4399529;28;657449;-71
2022/10/30 11:08:34;;;;;;;24.83;6.47;;;20.90;98.80;;;;;;4405420;28;658358;-70
2022/10/30 11:11:21;;;;;;;15.30;5.90;;;21.40;98.90;;;;;;4409248;28;657709;-70
2022/10/30 11:14:12;;;;;;;16.80;6.17;;;20.50;99.50;;;;;;4420362;28;659108;-71
2022/10/30 11:17:04;;;;;;;16.23;6.23;;;20.40;99.90;;;;;;4405486;28;657638;-70
2022/10/30 11:19:54;;;;;;;15.80;5.73;;;20.30;99.90;;;;;;4377898;28;657992;-70
2022/10/30 11:22:44;;;;;;;14.37;5.87;;;20.30;99.90;;;;;;4406382;28;657168;-71
2022/10/30 11:25:34;;;;;;;14.93;6.53;;;20.50;99.90;;;;;;4405625;28;658528;-71
2022/10/30 11:28:32;;;;;;;16.13;5.73;;;20.70;99.90;;;;;;4405898;28;658177;-70
2022/10/30 11:31:23;;;;;;;14.57;5.30;;;20.80;99.90;;;;;;4405109;28;657554;-71
2022/10/30 11:34:14;;;;;;;16.27;6.63;;;21.00;99.90;;;;;;4393889;28;657727;-71
2022/10/30 11:37:02;;;;;;;17.37;5.40;;;21.40;99.20;;;;;;4406912;28;658565;-71
2022/10/30 11:40:01;;;;;;;14.27;5.17;;;21.90;97.30;;;;;;4426378;28;658201;-70
2022/10/30 11:42:49;;;;;;;17.70;5.60;;;21.80;95.10;;;;;;4409421;28;657112;-70
2022/10/30 11:45:38;;;;;;;13.87;6.07;;;21.50;97.60;;;;;;4404687;28;657568;-71
2022/10/30 11:48:27;;;;;;;14.00;5.43;;;20.60;97.60;;;;;;4401697;28;657314;-69
2022/10/30 11:51:14;;;;;;;15.53;5.93;;;20.40;99.90;;;;;;4428023;28;658408;-71
2022/10/30 11:54:02;;;;;;;16.90;6.10;;;20.30;99.90;;;;;;4407562;28;657684;-70
2022/10/30 11:56:50;;;;;;;17.47;6.10;;;20.60;99.90;;;;;;4420819;28;657301;-70
2022/10/30 11:59:37;;;;;;;13.83;5.90;;;21.00;99.90;;;;;;4398260;28;658813;-70
2022/10/30 12:02:27;;;;;;;20.03;5.83;;;21.70;99.60;;;;;;4414516;28;658112;-70
2022/10/30 12:05:37;;;;;;;17.60;6.30;;;22.20;97.40;;;;;;4428535;28;658189;-71
2022/10/30 12:08:24;;;;;;;20.80;6.10;;;21.70;97.30;;;;;;4405020;28;658020;-70
2022/10/30 12:11:11;;;;;;;19.03;6.77;;;21.90;96.00;;;;;;4405763;28;657758;-71
2022/10/30 12:14:00;;;;;;;13.23;6.00;;;21.60;95.60;;;;;;4419183;28;657687;-70
2022/10/30 12:16:48;;;;;;;16.40;6.17;;;21.80;96.50;;;;;;4409495;28;658023;-71
2022/10/30 12:19:35;;;;;;;20.97;5.90;;;21.90;95.70;;;;;;4413161;28;657890;-70
2022/10/30 12:22:27;;;;;;;12.17;6.47;;;22.30;94.40;;;;;;4432410;28;657962;-70
2022/10/30 12:25:22;;;;;;;16.63;6.60;;;22.10;94.40;;;;;;4404404;28;657599;-71
2022/10/30 12:28:14;;;;;;;15.53;6.33;;;21.40;94.60;;;;;;4404623;28;658111;-70
2022/10/30 12:31:04;;;;;;;22.77;5.97;;;21.70;95.30;;;;;;4409475;28;657987;-71
2022/10/30 12:33:57;;;;;;;15.23;6.00;;;21.60;95.90;;;;;;4393656;28;658148;-70
2022/10/30 12:36:47;;;;;;;13.57;7.50;;;21.40;96.00;;;;;;4405009;28;658259;-71
2022/10/30 12:39:44;;;;;;;18.43;6.07;;;21.40;96.20;;;;;;4402113;28;657616;-71
2022/10/30 12:42:31;;;;;;;18.43;6.53;;;21.80;97.80;;;;;;4408364;28;657727;-71
2022/10/30 12:45:20;;;;;;;20.90;6.40;;;22.90;94.10;;;;;;4431729;28;658613;-70
2022/10/30 12:48:14;;;;;;;18.15;5.75;;;24.80;86.00;;;;;;4395231;28;658864;-71
2022/10/30 12:51:09;;;;;;;19.33;6.10;;;25.70;74.80;;;;;;4381129;28;658562;-71
2022/10/30 12:53:58;;;;;;;15.18;5.00;;;27.00;70.40;;;;;;4408405;28;657605;-70
2022/10/30 12:56:47;;;;;;;28.65;6.00;;;27.90;62.10;;;;;;4413208;28;657707;-71
2022/10/30 12:59:39;;;;;;;15.60;5.68;;;27.40;63.40;;;;;;4421104;28;657740;-71
2022/10/30 13:02:32;;;;;;;12.45;4.65;;;28.00;59.60;;;;;;4374296;28;657539;-71
2022/10/30 13:05:29;;;;;;;15.05;4.63;;;26.90;59.40;;;;;;4404778;28;657745;-71
2022/10/30 13:08:19;;;;;;;15.70;5.18;;;27.00;60.50;;;;;;4407930;28;658432;-71
2022/10/30 13:11:10;;;;;;;15.43;4.95;;;27.90;57.80;;;;;;4408103;28;657542;-71
2022/10/30 13:13:57;;;;;;;14.57;4.93;;;27.60;59.50;;;;;;4404469;28;659067;-71
2022/10/30 13:16:44;;;;;;;12.95;4.72;;;27.70;57.10;;;;;;4435010;28;656954;-71
2022/10/30 13:19:31;;;;;;;16.05;4.60;;;28.00;57.00;;;;;;4404124;28;657974;-71
2022/10/30 13:22:22;;;;;;;16.42;4.28;;;26.90;56.50;;;;;;4429710;28;658235;-70
2022/10/30 13:25:14;;;;;;;11.77;4.63;;;28.70;55.30;;;;;;4405726;28;657664;-70
2022/10/30 13:28:04;;;;;;;13.25;4.60;;;28.20;55.00;;;;;;4384689;28;657816;-70
2022/10/30 13:31:01;;;;;;;11.65;4.82;;;29.00;53.80;;;;;;4411382;28;658152;-70
2022/10/30 13:33:52;;;;;;;9.52;4.13;;;30.00;52.70;;;;;;4396172;28;658319;-70
2022/10/30 13:36:42;;;;;;;15.55;5.28;;;30.20;52.20;;;;;;4408451;28;656728;-71
2022/10/30 13:39:32;;;;;;;9.18;3.95;;;29.40;52.30;;;;;;4406681;28;657619;-70
2022/10/30 13:42:25;;;;;;;14.02;5.15;;;29.00;53.30;;;;;;4408251;28;656671;-69
2022/10/30 13:45:26;;;;;;;18.23;5.70;;;27.90;55.00;;;;;;4382235;28;658379;-70
2022/10/30 13:48:18;;;;;;;12.15;4.95;;;28.20;56.80;;;;;;4407079;28;657775;-70
2022/10/30 13:51:14;;;;;;;14.52;5.43;;;27.30;56.90;;;;;;4387657;28;657892;-71
2022/10/30 13:54:06;;;;;;;13.20;5.05;;;25.70;58.40;;;;;;4384399;28;658923;-70
2022/10/30 13:56:54;;;;;;;19.42;5.07;;;25.80;61.20;;;;;;4402712;28;657836;-70
2022/10/30 13:59:50;;;;;;;16.45;5.07;;;25.10;60.80;;;;;;4401496;28;658171;-70
2022/10/30 14:02:47;;;;;;;11.45;4.78;;;24.80;62.80;;;;;;4378654;28;658295;-70
2022/10/30 14:05:36;;;;;;;18.75;5.30;;;24.00;65.80;;;;;;4395719;28;657842;-70
2022/10/30 14:08:28;;;;;;;18.50;4.85;;;23.60;67.30;;;;;;4407164;28;659352;-71